sensor_id;sensor_type;location;lat;lon;timestamp;P1;durP1;ratioP1;P2;durP2;ratioP2
71969;SDS011;59838;52.152;5.436;2023-12-04T00:01:17;11.40;;;5.70;;
71969;SDS011;59838;52.152;5.436;2023-12-04T00:03:44;12.13;;;4.97;;
71969;SDS011;59838;52.152;5.436;2023-12-04T00:06:11;13.63;;;5.22;;
71969;SDS011;59838;52.152;5.436;2023-12-04T00:08:38;12.35;;;5.22;;
71969;SDS011;59838;52.152;5.436;2023-12-04T00:11:05;13.23;;;5.43;;
71969;SDS011;59838;52.152;5.436;2023-12-04T00:13:32;10.95;;;4.63;;
71969;SDS011;59838;52.152;5.436;2023-12-04T00:15:59;12.65;;;6.20;;
71969;SDS011;59838;52.152;5.436;2023-12-04T00:18:26;11.10;;;5.85;;
71969;SDS011;59838;52.152;5.436;2023-12-04T00:20:52;10.90;;;5.03;;
71969;SDS011;59838;52.152;5.436;2023-12-04T00:23:19;12.27;;;5.77;;
71969;SDS011;59838;52.152;5.436;2023-12-04T00:25:45;12.73;;;5.45;;
71969;SDS011;59838;52.152;5.436;2023-12-04T00:28:12;13.57;;;5.70;;
71969;SDS011;59838;52.152;5.436;2023-12-04T00:30:38;12.18;;;4.88;;
71969;SDS011;59838;52.152;5.436;2023-12-04T00:33:05;13.88;;;6.15;;
71969;SDS011;59838;52.152;5.436;2023-12-04T00:35:31;17.43;;;6.47;;
71969;SDS011;59838;52.152;5.436;2023-12-04T00:37:58;12.00;;;5.60;;
71969;SDS011;59838;52.152;5.436;2023-12-04T00:40:24;13.45;;;6.28;;
71969;SDS011;59838;52.152;5.436;2023-12-04T00:42:51;13.90;;;6.82;;
71969;SDS011;59838;52.152;5.436;2023-12-04T00:45:17;13.30;;;6.15;;
71969;SDS011;59838;52.152;5.436;2023-12-04T00:47:44;16.40;;;5.80;;
71969;SDS011;59838;52.152;5.436;2023-12-04T00:50:11;16.30;;;6.78;;
71969;SDS011;59838;52.152;5.436;2023-12-04T00:52:37;14.95;;;6.32;;
71969;SDS011;59838;52.152;5.436;2023-12-04T00:55:04;14.98;;;6.72;;
71969;SDS011;59838;52.152;5.436;2023-12-04T00:57:31;17.23;;;7.38;;
71969;SDS011;59838;52.152;5.436;2023-12-04T00:59:57;13.27;;;4.80;;
71969;SDS011;59838;52.152;5.436;2023-12-04T01:02:24;16.35;;;5.63;;
71969;SDS011;59838;52.152;5.436;2023-12-04T01:04:50;19.05;;;7.45;;
71969;SDS011;59838;52.152;5.436;2023-12-04T01:07:17;20.35;;;7.10;;
71969;SDS011;59838;52.152;5.436;2023-12-04T01:09:44;16.10;;;6.20;;
71969;SDS011;59838;52.152;5.436;2023-12-04T01:12:10;15.63;;;6.63;;
71969;SDS011;59838;52.152;5.436;2023-12-04T01:14:37;16.40;;;6.70;;
71969;SDS011;59838;52.152;5.436;2023-12-04T01:17:04;19.90;;;7.88;;
71969;SDS011;59838;52.152;5.436;2023-12-04T01:19:32;14.80;;;7.05;;
71969;SDS011;59838;52.152;5.436;2023-12-04T01:21:59;16.00;;;6.97;;
71969;SDS011;59838;52.152;5.436;2023-12-04T01:24:25;14.17;;;6.43;;
71969;SDS011;59838;52.152;5.436;2023-12-04T01:26:52;13.63;;;6.43;;
71969;SDS011;59838;52.152;5.436;2023-12-04T01:29:18;15.93;;;6.95;;
71969;SDS011;59838;52.152;5.436;2023-12-04T01:31:44;17.63;;;6.95;;
71969;SDS011;59838;52.152;5.436;2023-12-04T01:34:11;16.83;;;7.30;;
71969;SDS011;59838;52.152;5.436;2023-12-04T01:36:41;15.97;;;6.70;;
71969;SDS011;59838;52.152;5.436;2023-12-04T01:39:07;16.35;;;7.13;;
71969;SDS011;59838;52.152;5.436;2023-12-04T01:41:34;18.27;;;7.25;;
71969;SDS011;59838;52.152;5.436;2023-12-04T01:44:00;19.25;;;8.23;;
71969;SDS011;59838;52.152;5.436;2023-12-04T01:46:27;16.80;;;6.68;;
71969;SDS011;59838;52.152;5.436;2023-12-04T01:48:53;17.40;;;6.47;;
71969;SDS011;59838;52.152;5.436;2023-12-04T01:51:20;16.85;;;7.70;;
71969;SDS011;59838;52.152;5.436;2023-12-04T01:53:47;18.40;;;7.20;;
71969;SDS011;59838;52.152;5.436;2023-12-04T01:56:16;17.65;;;7.05;;
71969;SDS011;59838;52.152;5.436;2023-12-04T01:58:44;16.35;;;7.72;;
71969;SDS011;59838;52.152;5.436;2023-12-04T02:01:11;18.03;;;6.57;;
71969;SDS011;59838;52.152;5.436;2023-12-04T02:03:38;17.35;;;7.20;;
71969;SDS011;59838;52.152;5.436;2023-12-04T02:06:07;20.50;;;7.07;;
71969;SDS011;59838;52.152;5.436;2023-12-04T02:08:35;17.67;;;7.15;;
71969;SDS011;59838;52.152;5.436;2023-12-04T02:11:02;16.58;;;7.53;;
71969;SDS011;59838;52.152;5.436;2023-12-04T02:13:28;15.53;;;6.47;;
71969;SDS011;59838;52.152;5.436;2023-12-04T02:15:55;16.60;;;6.55;;
71969;SDS011;59838;52.152;5.436;2023-12-04T02:18:24;15.73;;;6.57;;
71969;SDS011;59838;52.152;5.436;2023-12-04T02:20:51;17.48;;;7.40;;
71969;SDS011;59838;52.152;5.436;2023-12-04T02:23:19;18.08;;;8.23;;
71969;SDS011;59838;52.152;5.436;2023-12-04T02:25:45;16.83;;;7.07;;
71969;SDS011;59838;52.152;5.436;2023-12-04T02:28:13;15.77;;;7.13;;
71969;SDS011;59838;52.152;5.436;2023-12-04T02:30:42;16.38;;;7.35;;
71969;SDS011;59838;52.152;5.436;2023-12-04T02:33:11;17.75;;;7.95;;
71969;SDS011;59838;52.152;5.436;2023-12-04T02:35:40;15.23;;;6.72;;
71969;SDS011;59838;52.152;5.436;2023-12-04T02:38:08;21.33;;;7.60;;
71969;SDS011;59838;52.152;5.436;2023-12-04T02:40:35;15.25;;;6.85;;
71969;SDS011;59838;52.152;5.436;2023-12-04T02:43:02;14.23;;;6.13;;
71969;SDS011;59838;52.152;5.436;2023-12-04T02:45:29;17.65;;;7.80;;
71969;SDS011;59838;52.152;5.436;2023-12-04T02:47:55;16.02;;;7.00;;
71969;SDS011;59838;52.152;5.436;2023-12-04T02:50:22;16.60;;;7.00;;
71969;SDS011;59838;52.152;5.436;2023-12-04T02:52:48;14.55;;;6.10;;
71969;SDS011;59838;52.152;5.436;2023-12-04T02:55:14;19.02;;;7.20;;
71969;SDS011;59838;52.152;5.436;2023-12-04T02:57:41;14.27;;;6.72;;
71969;SDS011;59838;52.152;5.436;2023-12-04T03:00:08;17.05;;;6.53;;
71969;SDS011;59838;52.152;5.436;2023-12-04T03:02:35;16.37;;;7.33;;
71969;SDS011;59838;52.152;5.436;2023-12-04T03:05:02;13.98;;;5.70;;
71969;SDS011;59838;52.152;5.436;2023-12-04T03:07:28;14.35;;;7.35;;
71969;SDS011;59838;52.152;5.436;2023-12-04T03:09:56;16.15;;;7.72;;
71969;SDS011;59838;52.152;5.436;2023-12-04T03:12:22;17.90;;;7.13;;
71969;SDS011;59838;52.152;5.436;2023-12-04T03:14:49;12.43;;;5.63;;
71969;SDS011;59838;52.152;5.436;2023-12-04T03:17:15;13.10;;;6.45;;
71969;SDS011;59838;52.152;5.436;2023-12-04T03:19:41;18.75;;;7.20;;
71969;SDS011;59838;52.152;5.436;2023-12-04T03:22:08;16.67;;;6.43;;
71969;SDS011;59838;52.152;5.436;2023-12-04T03:24:35;18.83;;;6.65;;
71969;SDS011;59838;52.152;5.436;2023-12-04T03:27:01;17.80;;;6.83;;
71969;SDS011;59838;52.152;5.436;2023-12-04T03:29:28;14.13;;;6.25;;
71969;SDS011;59838;52.152;5.436;2023-12-04T03:31:54;17.15;;;7.32;;
71969;SDS011;59838;52.152;5.436;2023-12-04T03:34:21;19.40;;;7.70;;
71969;SDS011;59838;52.152;5.436;2023-12-04T03:36:47;14.32;;;6.63;;
71969;SDS011;59838;52.152;5.436;2023-12-04T03:39:14;16.70;;;6.47;;
71969;SDS011;59838;52.152;5.436;2023-12-04T03:41:40;17.42;;;7.38;;
71969;SDS011;59838;52.152;5.436;2023-12-04T03:44:07;14.95;;;5.60;;
71969;SDS011;59838;52.152;5.436;2023-12-04T03:46:33;11.20;;;5.38;;
71969;SDS011;59838;52.152;5.436;2023-12-04T03:49:00;15.70;;;6.22;;
71969;SDS011;59838;52.152;5.436;2023-12-04T03:51:26;16.23;;;6.83;;
71969;SDS011;59838;52.152;5.436;2023-12-04T03:53:53;12.75;;;6.32;;
71969;SDS011;59838;52.152;5.436;2023-12-04T03:56:19;13.85;;;5.65;;
71969;SDS011;59838;52.152;5.436;2023-12-04T03:58:46;11.43;;;5.00;;
71969;SDS011;59838;52.152;5.436;2023-12-04T04:01:12;14.40;;;5.75;;
71969;SDS011;59838;52.152;5.436;2023-12-04T04:03:39;12.33;;;5.77;;
71969;SDS011;59838;52.152;5.436;2023-12-04T04:06:06;14.15;;;5.97;;
71969;SDS011;59838;52.152;5.436;2023-12-04T04:08:32;11.68;;;5.28;;
71969;SDS011;59838;52.152;5.436;2023-12-04T04:10:59;13.43;;;5.13;;
71969;SDS011;59838;52.152;5.436;2023-12-04T04:13:26;12.00;;;5.28;;
71969;SDS011;59838;52.152;5.436;2023-12-04T04:15:52;12.53;;;5.73;;
71969;SDS011;59838;52.152;5.436;2023-12-04T04:18:19;12.70;;;5.28;;
71969;SDS011;59838;52.152;5.436;2023-12-04T04:20:45;11.98;;;4.57;;
71969;SDS011;59838;52.152;5.436;2023-12-04T04:23:12;12.32;;;5.43;;
71969;SDS011;59838;52.152;5.436;2023-12-04T04:25:38;11.88;;;5.25;;
71969;SDS011;59838;52.152;5.436;2023-12-04T04:28:05;12.60;;;5.63;;
71969;SDS011;59838;52.152;5.436;2023-12-04T04:30:31;13.43;;;5.63;;
71969;SDS011;59838;52.152;5.436;2023-12-04T04:32:58;12.35;;;4.85;;
71969;SDS011;59838;52.152;5.436;2023-12-04T04:35:24;15.15;;;5.70;;
71969;SDS011;59838;52.152;5.436;2023-12-04T04:37:51;9.07;;;4.88;;
71969;SDS011;59838;52.152;5.436;2023-12-04T04:40:17;12.93;;;5.20;;
71969;SDS011;59838;52.152;5.436;2023-12-04T04:42:44;9.60;;;4.43;;
71969;SDS011;59838;52.152;5.436;2023-12-04T04:45:10;8.68;;;4.40;;
71969;SDS011;59838;52.152;5.436;2023-12-04T04:47:37;9.98;;;5.07;;
71969;SDS011;59838;52.152;5.436;2023-12-04T04:50:03;11.70;;;4.82;;
71969;SDS011;59838;52.152;5.436;2023-12-04T04:52:30;11.50;;;5.20;;
71969;SDS011;59838;52.152;5.436;2023-12-04T04:54:58;10.80;;;4.75;;
71969;SDS011;59838;52.152;5.436;2023-12-04T04:57:24;10.80;;;5.35;;
71969;SDS011;59838;52.152;5.436;2023-12-04T04:59:51;9.38;;;4.55;;
71969;SDS011;59838;52.152;5.436;2023-12-04T05:02:17;10.77;;;4.70;;
71969;SDS011;59838;52.152;5.436;2023-12-04T05:04:44;11.37;;;5.67;;
71969;SDS011;59838;52.152;5.436;2023-12-04T05:07:10;11.82;;;4.68;;
71969;SDS011;59838;52.152;5.436;2023-12-04T05:09:37;12.85;;;5.50;;
71969;SDS011;59838;52.152;5.436;2023-12-04T05:12:04;12.02;;;5.80;;
71969;SDS011;59838;52.152;5.436;2023-12-04T05:14:30;8.65;;;4.45;;
71969;SDS011;59838;52.152;5.436;2023-12-04T05:16:57;12.47;;;5.43;;
71969;SDS011;59838;52.152;5.436;2023-12-04T05:19:23;9.65;;;4.65;;
71969;SDS011;59838;52.152;5.436;2023-12-04T05:21:50;9.23;;;4.68;;
71969;SDS011;59838;52.152;5.436;2023-12-04T05:24:16;13.70;;;5.30;;
71969;SDS011;59838;52.152;5.436;2023-12-04T05:26:43;10.90;;;4.93;;
71969;SDS011;59838;52.152;5.436;2023-12-04T05:29:09;8.67;;;3.93;;
71969;SDS011;59838;52.152;5.436;2023-12-04T05:31:36;10.98;;;5.43;;
71969;SDS011;59838;52.152;5.436;2023-12-04T05:34:02;12.77;;;5.05;;
71969;SDS011;59838;52.152;5.436;2023-12-04T05:36:29;8.77;;;4.25;;
71969;SDS011;59838;52.152;5.436;2023-12-04T05:38:56;9.68;;;4.43;;
71969;SDS011;59838;52.152;5.436;2023-12-04T05:41:26;11.37;;;5.37;;
71969;SDS011;59838;52.152;5.436;2023-12-04T05:43:52;8.50;;;3.97;;
71969;SDS011;59838;52.152;5.436;2023-12-04T05:46:19;8.27;;;3.95;;
71969;SDS011;59838;52.152;5.436;2023-12-04T05:48:46;7.78;;;4.47;;
71969;SDS011;59838;52.152;5.436;2023-12-04T05:51:12;9.77;;;4.68;;
71969;SDS011;59838;52.152;5.436;2023-12-04T05:53:40;11.10;;;4.03;;
71969;SDS011;59838;52.152;5.436;2023-12-04T05:56:06;8.38;;;4.40;;
71969;SDS011;59838;52.152;5.436;2023-12-04T05:58:35;11.93;;;4.38;;
71969;SDS011;59838;52.152;5.436;2023-12-04T06:01:01;8.40;;;3.92;;
71969;SDS011;59838;52.152;5.436;2023-12-04T06:03:28;8.60;;;3.75;;
71969;SDS011;59838;52.152;5.436;2023-12-04T06:05:55;8.20;;;3.77;;
71969;SDS011;59838;52.152;5.436;2023-12-04T06:08:24;7.72;;;3.50;;
71969;SDS011;59838;52.152;5.436;2023-12-04T06:10:51;8.85;;;4.07;;
71969;SDS011;59838;52.152;5.436;2023-12-04T06:13:17;9.50;;;4.20;;
71969;SDS011;59838;52.152;5.436;2023-12-04T06:15:44;6.78;;;4.22;;
71969;SDS011;59838;52.152;5.436;2023-12-04T06:18:10;9.77;;;4.60;;
71969;SDS011;59838;52.152;5.436;2023-12-04T06:20:37;8.75;;;4.13;;
71969;SDS011;59838;52.152;5.436;2023-12-04T06:23:04;8.98;;;4.20;;
71969;SDS011;59838;52.152;5.436;2023-12-04T06:25:30;5.75;;;3.67;;
71969;SDS011;59838;52.152;5.436;2023-12-04T06:27:57;9.55;;;4.05;;
71969;SDS011;59838;52.152;5.436;2023-12-04T06:30:24;10.83;;;4.17;;
71969;SDS011;59838;52.152;5.436;2023-12-04T06:32:50;11.18;;;4.25;;
71969;SDS011;59838;52.152;5.436;2023-12-04T06:35:17;9.98;;;3.97;;
71969;SDS011;59838;52.152;5.436;2023-12-04T06:37:46;8.25;;;4.38;;
71969;SDS011;59838;52.152;5.436;2023-12-04T06:40:14;7.13;;;3.78;;
71969;SDS011;59838;52.152;5.436;2023-12-04T06:42:41;9.67;;;4.47;;
71969;SDS011;59838;52.152;5.436;2023-12-04T06:45:08;8.43;;;3.92;;
71969;SDS011;59838;52.152;5.436;2023-12-04T06:47:35;9.23;;;4.03;;
71969;SDS011;59838;52.152;5.436;2023-12-04T06:50:03;8.18;;;3.90;;
71969;SDS011;59838;52.152;5.436;2023-12-04T06:52:30;6.95;;;3.13;;
71969;SDS011;59838;52.152;5.436;2023-12-04T06:54:56;8.33;;;4.07;;
71969;SDS011;59838;52.152;5.436;2023-12-04T06:57:23;6.75;;;4.05;;
71969;SDS011;59838;52.152;5.436;2023-12-04T06:59:50;8.80;;;4.07;;
71969;SDS011;59838;52.152;5.436;2023-12-04T07:02:16;10.35;;;3.80;;
71969;SDS011;59838;52.152;5.436;2023-12-04T07:04:43;8.13;;;3.70;;
71969;SDS011;59838;52.152;5.436;2023-12-04T07:07:09;7.17;;;3.13;;
71969;SDS011;59838;52.152;5.436;2023-12-04T07:09:38;7.70;;;3.40;;
71969;SDS011;59838;52.152;5.436;2023-12-04T07:12:05;7.78;;;4.18;;
71969;SDS011;59838;52.152;5.436;2023-12-04T07:14:32;9.48;;;4.57;;
71969;SDS011;59838;52.152;5.436;2023-12-04T07:16:59;8.07;;;3.85;;
71969;SDS011;59838;52.152;5.436;2023-12-04T07:19:26;7.17;;;4.07;;
71969;SDS011;59838;52.152;5.436;2023-12-04T07:21:53;7.97;;;3.83;;
71969;SDS011;59838;52.152;5.436;2023-12-04T07:24:20;7.10;;;3.03;;
71969;SDS011;59838;52.152;5.436;2023-12-04T07:26:46;8.57;;;3.80;;
71969;SDS011;59838;52.152;5.436;2023-12-04T07:29:13;5.30;;;3.08;;
71969;SDS011;59838;52.152;5.436;2023-12-04T07:31:40;5.23;;;4.10;;
71969;SDS011;59838;52.152;5.436;2023-12-04T07:34:07;5.53;;;2.97;;
71969;SDS011;59838;52.152;5.436;2023-12-04T07:36:34;8.65;;;3.75;;
71969;SDS011;59838;52.152;5.436;2023-12-04T07:39:00;8.25;;;4.40;;
71969;SDS011;59838;52.152;5.436;2023-12-04T07:41:27;8.00;;;3.70;;
71969;SDS011;59838;52.152;5.436;2023-12-04T07:43:53;7.17;;;3.23;;
71969;SDS011;59838;52.152;5.436;2023-12-04T07:46:20;10.73;;;3.40;;
71969;SDS011;59838;52.152;5.436;2023-12-04T07:48:47;6.20;;;3.28;;
71969;SDS011;59838;52.152;5.436;2023-12-04T07:51:14;7.28;;;3.30;;
71969;SDS011;59838;52.152;5.436;2023-12-04T07:53:40;5.47;;;2.88;;
71969;SDS011;59838;52.152;5.436;2023-12-04T07:56:07;5.93;;;3.97;;
71969;SDS011;59838;52.152;5.436;2023-12-04T07:58:34;8.05;;;3.28;;
71969;SDS011;59838;52.152;5.436;2023-12-04T08:01:00;6.35;;;2.65;;
71969;SDS011;59838;52.152;5.436;2023-12-04T08:03:27;6.97;;;4.00;;
71969;SDS011;59838;52.152;5.436;2023-12-04T08:05:53;6.40;;;3.15;;
71969;SDS011;59838;52.152;5.436;2023-12-04T08:08:20;7.53;;;3.33;;
71969;SDS011;59838;52.152;5.436;2023-12-04T08:10:47;5.45;;;3.42;;
71969;SDS011;59838;52.152;5.436;2023-12-04T08:13:14;6.28;;;3.28;;
71969;SDS011;59838;52.152;5.436;2023-12-04T08:15:41;8.10;;;2.85;;
71969;SDS011;59838;52.152;5.436;2023-12-04T08:18:08;6.47;;;3.47;;
71969;SDS011;59838;52.152;5.436;2023-12-04T08:20:35;9.37;;;3.90;;
71969;SDS011;59838;52.152;5.436;2023-12-04T08:23:06;7.65;;;3.90;;
71969;SDS011;59838;52.152;5.436;2023-12-04T08:25:33;5.95;;;2.90;;
71969;SDS011;59838;52.152;5.436;2023-12-04T08:27:59;6.97;;;3.30;;
71969;SDS011;59838;52.152;5.436;2023-12-04T08:30:29;4.80;;;2.65;;
71969;SDS011;59838;52.152;5.436;2023-12-04T08:32:56;5.53;;;2.97;;
71969;SDS011;59838;52.152;5.436;2023-12-04T08:35:22;6.20;;;3.53;;
71969;SDS011;59838;52.152;5.436;2023-12-04T08:37:49;5.47;;;3.50;;
71969;SDS011;59838;52.152;5.436;2023-12-04T08:40:16;6.45;;;3.22;;
71969;SDS011;59838;52.152;5.436;2023-12-04T08:42:43;5.00;;;2.60;;
71969;SDS011;59838;52.152;5.436;2023-12-04T08:45:10;6.03;;;2.47;;
71969;SDS011;59838;52.152;5.436;2023-12-04T08:47:37;6.68;;;3.45;;
71969;SDS011;59838;52.152;5.436;2023-12-04T08:50:04;5.05;;;2.75;;
71969;SDS011;59838;52.152;5.436;2023-12-04T08:52:32;6.10;;;3.35;;
71969;SDS011;59838;52.152;5.436;2023-12-04T08:54:59;6.55;;;3.30;;
71969;SDS011;59838;52.152;5.436;2023-12-04T08:57:25;4.73;;;2.83;;
71969;SDS011;59838;52.152;5.436;2023-12-04T08:59:52;5.78;;;3.00;;
71969;SDS011;59838;52.152;5.436;2023-12-04T09:02:18;6.65;;;3.33;;
71969;SDS011;59838;52.152;5.436;2023-12-04T09:04:45;5.78;;;3.05;;
71969;SDS011;59838;52.152;5.436;2023-12-04T09:07:12;6.80;;;3.20;;
71969;SDS011;59838;52.152;5.436;2023-12-04T09:09:59;8.00;;;3.23;;
71969;SDS011;59838;52.152;5.436;2023-12-04T09:12:33;5.50;;;2.90;;
71969;SDS011;59838;52.152;5.436;2023-12-04T09:15:01;4.63;;;2.40;;
71969;SDS011;59838;52.152;5.436;2023-12-04T09:17:28;8.05;;;3.65;;
71969;SDS011;59838;52.152;5.436;2023-12-04T09:20:04;7.28;;;2.55;;
71969;SDS011;59838;52.152;5.436;2023-12-04T09:22:32;6.60;;;3.03;;
71969;SDS011;59838;52.152;5.436;2023-12-04T09:25:13;5.70;;;2.40;;
71969;SDS011;59838;52.152;5.436;2023-12-04T09:27:40;4.88;;;2.70;;
71969;SDS011;59838;52.152;5.436;2023-12-04T09:30:07;5.10;;;2.88;;
71969;SDS011;59838;52.152;5.436;2023-12-04T09:32:34;5.80;;;2.83;;
71969;SDS011;59838;52.152;5.436;2023-12-04T09:35:01;6.23;;;2.60;;
71969;SDS011;59838;52.152;5.436;2023-12-04T09:37:28;6.03;;;3.20;;
71969;SDS011;59838;52.152;5.436;2023-12-04T09:39:54;5.47;;;2.63;;
71969;SDS011;59838;52.152;5.436;2023-12-04T09:42:21;7.25;;;2.60;;
71969;SDS011;59838;52.152;5.436;2023-12-04T09:44:47;7.70;;;2.90;;
71969;SDS011;59838;52.152;5.436;2023-12-04T09:47:17;6.37;;;2.83;;
71969;SDS011;59838;52.152;5.436;2023-12-04T09:49:45;7.05;;;3.20;;
71969;SDS011;59838;52.152;5.436;2023-12-04T09:52:12;5.70;;;2.85;;
71969;SDS011;59838;52.152;5.436;2023-12-04T09:54:38;5.05;;;2.85;;
71969;SDS011;59838;52.152;5.436;2023-12-04T09:57:06;6.05;;;3.22;;
71969;SDS011;59838;52.152;5.436;2023-12-04T09:59:32;5.07;;;2.70;;
71969;SDS011;59838;52.152;5.436;2023-12-04T10:02:02;5.10;;;2.92;;
71969;SDS011;59838;52.152;5.436;2023-12-04T10:04:29;5.95;;;2.15;;
71969;SDS011;59838;52.152;5.436;2023-12-04T10:06:56;5.20;;;2.67;;
71969;SDS011;59838;52.152;5.436;2023-12-04T10:09:23;6.65;;;2.38;;
71969;SDS011;59838;52.152;5.436;2023-12-04T10:11:51;6.93;;;2.83;;
71969;SDS011;59838;52.152;5.436;2023-12-04T10:14:20;4.40;;;2.60;;
71969;SDS011;59838;52.152;5.436;2023-12-04T10:16:48;4.75;;;2.30;;
71969;SDS011;59838;52.152;5.436;2023-12-04T10:21:52;5.03;;;2.85;;
71969;SDS011;59838;52.152;5.436;2023-12-04T10:24:27;6.37;;;2.67;;
71969;SDS011;59838;52.152;5.436;2023-12-04T10:26:54;4.95;;;2.08;;
71969;SDS011;59838;52.152;5.436;2023-12-04T10:29:20;5.22;;;2.10;;
71969;SDS011;59838;52.152;5.436;2023-12-04T10:31:47;5.78;;;2.60;;
71969;SDS011;59838;52.152;5.436;2023-12-04T10:34:16;3.63;;;2.13;;
71969;SDS011;59838;52.152;5.436;2023-12-04T10:36:44;4.77;;;2.47;;
71969;SDS011;59838;52.152;5.436;2023-12-04T10:39:12;5.82;;;2.67;;
71969;SDS011;59838;52.152;5.436;2023-12-04T10:41:43;5.32;;;2.13;;
71969;SDS011;59838;52.152;5.436;2023-12-04T10:44:15;5.00;;;2.65;;
71969;SDS011;59838;52.152;5.436;2023-12-04T10:46:43;4.07;;;2.45;;
71969;SDS011;59838;52.152;5.436;2023-12-04T10:49:13;6.37;;;3.00;;
71969;SDS011;59838;52.152;5.436;2023-12-04T10:51:40;7.60;;;3.05;;
71969;SDS011;59838;52.152;5.436;2023-12-04T10:54:07;4.85;;;2.35;;
71969;SDS011;59838;52.152;5.436;2023-12-04T10:56:37;5.70;;;2.85;;
71969;SDS011;59838;52.152;5.436;2023-12-04T10:59:11;5.53;;;2.25;;
71969;SDS011;59838;52.152;5.436;2023-12-04T11:01:42;5.47;;;2.53;;
71969;SDS011;59838;52.152;5.436;2023-12-04T11:04:13;4.40;;;2.03;;
71969;SDS011;59838;52.152;5.436;2023-12-04T11:06:44;6.60;;;3.20;;
71969;SDS011;59838;52.152;5.436;2023-12-04T11:09:15;5.93;;;3.40;;
71969;SDS011;59838;52.152;5.436;2023-12-04T11:11:46;5.30;;;3.00;;
71969;SDS011;59838;52.152;5.436;2023-12-04T11:14:17;5.23;;;2.77;;
71969;SDS011;59838;52.152;5.436;2023-12-04T11:16:49;11.98;;;3.22;;
71969;SDS011;59838;52.152;5.436;2023-12-04T11:21:58;5.97;;;3.05;;
71969;SDS011;59838;52.152;5.436;2023-12-04T11:24:25;6.35;;;3.47;;
71969;SDS011;59838;52.152;5.436;2023-12-04T11:26:52;6.00;;;3.45;;
71969;SDS011;59838;52.152;5.436;2023-12-04T11:29:19;6.00;;;3.60;;
71969;SDS011;59838;52.152;5.436;2023-12-04T11:31:47;5.32;;;3.03;;
71969;SDS011;59838;52.152;5.436;2023-12-04T11:34:14;6.70;;;3.33;;
71969;SDS011;59838;52.152;5.436;2023-12-04T11:36:40;6.18;;;3.35;;
71969;SDS011;59838;52.152;5.436;2023-12-04T11:39:10;5.07;;;3.13;;
71969;SDS011;59838;52.152;5.436;2023-12-04T11:41:37;7.43;;;4.07;;
71969;SDS011;59838;52.152;5.436;2023-12-04T11:44:11;6.45;;;3.88;;
71969;SDS011;59838;52.152;5.436;2023-12-04T11:47:02;7.93;;;3.97;;
71969;SDS011;59838;52.152;5.436;2023-12-04T11:49:32;11.02;;;3.92;;
71969;SDS011;59838;52.152;5.436;2023-12-04T11:51:59;5.47;;;3.42;;
71969;SDS011;59838;52.152;5.436;2023-12-04T11:54:27;6.43;;;2.80;;
71969;SDS011;59838;52.152;5.436;2023-12-04T11:57:00;7.43;;;3.70;;
71969;SDS011;59838;52.152;5.436;2023-12-04T11:59:47;7.38;;;3.58;;
71969;SDS011;59838;52.152;5.436;2023-12-04T12:02:15;6.80;;;3.58;;
71969;SDS011;59838;52.152;5.436;2023-12-04T12:04:42;6.07;;;3.22;;
71969;SDS011;59838;52.152;5.436;2023-12-04T12:07:09;5.53;;;3.40;;
71969;SDS011;59838;52.152;5.436;2023-12-04T12:09:37;5.80;;;3.78;;
71969;SDS011;59838;52.152;5.436;2023-12-04T12:12:05;5.53;;;3.75;;
71969;SDS011;59838;52.152;5.436;2023-12-04T12:14:32;6.72;;;3.65;;
71969;SDS011;59838;52.152;5.436;2023-12-04T12:16:59;6.32;;;3.60;;
71969;SDS011;59838;52.152;5.436;2023-12-04T12:19:27;6.33;;;3.43;;
71969;SDS011;59838;52.152;5.436;2023-12-04T12:21:54;6.32;;;3.40;;
71969;SDS011;59838;52.152;5.436;2023-12-04T12:24:20;12.80;;;4.82;;
71969;SDS011;59838;52.152;5.436;2023-12-04T12:26:47;12.00;;;5.63;;
71969;SDS011;59838;52.152;5.436;2023-12-04T12:29:14;7.40;;;3.72;;
71969;SDS011;59838;52.152;5.436;2023-12-04T12:31:40;7.47;;;4.03;;
71969;SDS011;59838;52.152;5.436;2023-12-04T12:34:06;10.30;;;3.60;;
71969;SDS011;59838;52.152;5.436;2023-12-04T12:36:33;8.20;;;4.05;;
71969;SDS011;59838;52.152;5.436;2023-12-04T12:39:00;5.40;;;3.60;;
71969;SDS011;59838;52.152;5.436;2023-12-04T12:41:30;9.57;;;4.57;;
71969;SDS011;59838;52.152;5.436;2023-12-04T12:43:57;7.47;;;4.23;;
71969;SDS011;59838;52.152;5.436;2023-12-04T12:46:24;5.70;;;3.50;;
71969;SDS011;59838;52.152;5.436;2023-12-04T12:48:51;6.18;;;3.40;;
71969;SDS011;59838;52.152;5.436;2023-12-04T12:51:17;8.82;;;3.83;;
71969;SDS011;59838;52.152;5.436;2023-12-04T12:53:44;6.43;;;3.33;;
71969;SDS011;59838;52.152;5.436;2023-12-04T12:56:17;6.43;;;3.47;;
71969;SDS011;59838;52.152;5.436;2023-12-04T12:58:43;10.10;;;4.97;;
71969;SDS011;59838;52.152;5.436;2023-12-04T13:01:10;7.90;;;3.95;;
71969;SDS011;59838;52.152;5.436;2023-12-04T13:03:38;7.93;;;3.75;;
71969;SDS011;59838;52.152;5.436;2023-12-04T13:06:05;8.65;;;3.83;;
71969;SDS011;59838;52.152;5.436;2023-12-04T13:08:31;6.90;;;3.60;;
71969;SDS011;59838;52.152;5.436;2023-12-04T13:10:58;6.32;;;3.33;;
71969;SDS011;59838;52.152;5.436;2023-12-04T13:13:25;8.00;;;4.47;;
71969;SDS011;59838;52.152;5.436;2023-12-04T13:15:53;7.75;;;3.60;;
71969;SDS011;59838;52.152;5.436;2023-12-04T13:18:20;8.65;;;4.60;;
71969;SDS011;59838;52.152;5.436;2023-12-04T13:20:47;4.97;;;3.17;;
71969;SDS011;59838;52.152;5.436;2023-12-04T13:23:13;6.55;;;3.33;;
71969;SDS011;59838;52.152;5.436;2023-12-04T13:25:40;9.02;;;4.35;;
71969;SDS011;59838;52.152;5.436;2023-12-04T13:28:06;9.57;;;3.55;;
71969;SDS011;59838;52.152;5.436;2023-12-04T13:30:37;18.25;;;4.65;;
71969;SDS011;59838;52.152;5.436;2023-12-04T13:33:05;18.60;;;5.33;;
71969;SDS011;59838;52.152;5.436;2023-12-04T13:35:31;9.68;;;3.20;;
71969;SDS011;59838;52.152;5.436;2023-12-04T13:37:58;8.93;;;3.65;;
71969;SDS011;59838;52.152;5.436;2023-12-04T13:40:25;6.90;;;3.80;;
71969;SDS011;59838;52.152;5.436;2023-12-04T13:42:54;6.32;;;2.80;;
71969;SDS011;59838;52.152;5.436;2023-12-04T13:45:40;9.57;;;4.23;;
71969;SDS011;59838;52.152;5.436;2023-12-04T13:48:06;7.95;;;3.65;;
71969;SDS011;59838;52.152;5.436;2023-12-04T13:50:33;7.43;;;3.65;;
71969;SDS011;59838;52.152;5.436;2023-12-04T13:52:59;8.00;;;3.55;;
71969;SDS011;59838;52.152;5.436;2023-12-04T13:55:26;6.25;;;3.83;;
71969;SDS011;59838;52.152;5.436;2023-12-04T13:58:12;5.70;;;3.77;;
71969;SDS011;59838;52.152;5.436;2023-12-04T14:00:58;8.35;;;3.47;;
71969;SDS011;59838;52.152;5.436;2023-12-04T14:03:26;6.78;;;3.85;;
71969;SDS011;59838;52.152;5.436;2023-12-04T14:05:55;8.43;;;3.88;;
71969;SDS011;59838;52.152;5.436;2023-12-04T14:08:22;6.38;;;3.92;;
71969;SDS011;59838;52.152;5.436;2023-12-04T14:10:49;7.17;;;3.33;;
71969;SDS011;59838;52.152;5.436;2023-12-04T14:13:15;9.15;;;4.40;;
71969;SDS011;59838;52.152;5.436;2023-12-04T14:15:43;7.28;;;3.88;;
71969;SDS011;59838;52.152;5.436;2023-12-04T14:18:09;7.72;;;3.70;;
71969;SDS011;59838;52.152;5.436;2023-12-04T14:20:36;7.05;;;3.63;;
71969;SDS011;59838;52.152;5.436;2023-12-04T14:23:03;6.67;;;3.80;;
71969;SDS011;59838;52.152;5.436;2023-12-04T14:25:31;9.20;;;4.60;;
71969;SDS011;59838;52.152;5.436;2023-12-04T14:27:57;7.60;;;3.85;;
71969;SDS011;59838;52.152;5.436;2023-12-04T14:30:24;6.40;;;3.45;;
71969;SDS011;59838;52.152;5.436;2023-12-04T14:32:53;9.65;;;3.72;;
71969;SDS011;59838;52.152;5.436;2023-12-04T14:35:21;7.37;;;3.20;;
71969;SDS011;59838;52.152;5.436;2023-12-04T14:37:47;6.28;;;3.78;;
71969;SDS011;59838;52.152;5.436;2023-12-04T14:40:14;6.80;;;4.38;;
71969;SDS011;59838;52.152;5.436;2023-12-04T14:42:42;9.55;;;3.38;;
71969;SDS011;59838;52.152;5.436;2023-12-04T14:45:10;6.30;;;3.60;;
71969;SDS011;59838;52.152;5.436;2023-12-04T14:47:36;9.50;;;3.07;;
71969;SDS011;59838;52.152;5.436;2023-12-04T14:50:03;7.07;;;4.18;;